aviador You're here:

K2W6 Decoded Metar

CAPT DUKE RGNL in MD, USA
Report Time2017-09-21 20:57:00
UTC Time2017-09-21 21:05:49
Flight Rules vfr VFR
Wind020° at 04 kt
W.Rank020° ranks 31
Current wind is below 020° avg. (4.4)
Visibility9999 m
Phenomena:N/A
Clouds:N/A
Expected CloudBase > 3,600 ft AGL from Temp-Dew spread
CeilingNone
Temp27°C (ISA +12)
Dew Point18°C (58% RH)
Heat Index27.9°C
QNH1017 hPa
Density Alt1,699 ft
Elevation144 ft
Report Wrong Elevation
Raw Report
K2W6 212057Z AUTO 02004KT 10SM CLR 27/18 A3002 RMK AO1=

Extra information for K2W6:More info

Metar Taf Metar & Taf Last 4 Metars F.Rules Stats Wind Profile Meteogram Temp Stats Airport Information Weather charts Add Link Nearby VenuesMetar ALERT Operation Metar Decoded Social comments

AIRNAV info for K2W6